createdAt,value
2022-12-31T00:02:13.240Z,100.00
2022-12-31T00:04:43.148Z,100.00
2022-12-31T00:07:13.044Z,100.00
2022-12-31T00:09:44.723Z,100.00
2022-12-31T00:12:14.588Z,100.00
2022-12-31T00:14:44.443Z,100.00
2022-12-31T00:17:14.303Z,100.00
2022-12-31T00:19:44.263Z,100.00
2022-12-31T00:22:14.127Z,100.00
2022-12-31T00:24:45.640Z,100.00
2022-12-31T00:27:15.686Z,100.00
2022-12-31T00:29:45.695Z,100.00
2022-12-31T00:32:15.577Z,100.00
2022-12-31T00:34:45.321Z,100.00
2022-12-31T00:37:15.256Z,100.00
2022-12-31T00:39:46.683Z,100.00
2022-12-31T00:42:16.677Z,100.00
2022-12-31T00:44:46.478Z,100.00
2022-12-31T00:50:49.687Z,100.00
2022-12-31T00:53:19.684Z,100.00
2022-12-31T00:55:49.765Z,100.00
2022-12-31T00:58:19.895Z,100.00
2022-12-31T01:00:49.676Z,100.00
2022-12-31T01:03:19.654Z,100.00
2022-12-31T01:05:51.495Z,100.00
2022-12-31T01:08:21.529Z,100.00
2022-12-31T01:11:09.559Z,100.00
2022-12-31T01:13:39.385Z,100.00
2022-12-31T01:16:14.862Z,100.00
2022-12-31T01:18:45.311Z,100.00
2022-12-31T01:21:18.003Z,100.00
2022-12-31T01:23:48.031Z,100.00
2022-12-31T01:26:19.574Z,100.00
2022-12-31T01:28:50.125Z,100.00
2022-12-31T01:31:24.332Z,100.00
2022-12-31T01:33:54.923Z,100.00
2022-12-31T01:36:28.416Z,100.00
2022-12-31T01:39:00.856Z,100.00
2022-12-31T01:41:33.984Z,100.00
2022-12-31T01:44:25.374Z,100.00
2022-12-31T01:46:59.014Z,100.00
2022-12-31T01:49:37.925Z,100.00
2022-12-31T01:52:14.285Z,100.00
2022-12-31T01:54:48.594Z,100.00
2022-12-31T01:57:19.491Z,100.00
2022-12-31T01:59:49.397Z,100.00
2022-12-31T02:02:20.041Z,100.00
2022-12-31T02:04:53.702Z,100.00
2022-12-31T02:07:25.976Z,100.00
2022-12-31T02:09:57.030Z,100.00
2022-12-31T02:12:27.066Z,100.00
2022-12-31T02:14:58.096Z,100.00
2022-12-31T02:17:39.061Z,100.00
2022-12-31T02:20:38.962Z,100.00
2022-12-31T02:24:01.341Z,100.00
2022-12-31T02:26:57.997Z,100.00
2022-12-31T02:30:06.971Z,100.00
2022-12-31T02:32:52.376Z,100.00
2022-12-31T02:35:29.179Z,100.00
2022-12-31T02:38:05.071Z,100.00
2022-12-31T02:40:37.299Z,100.00
2022-12-31T02:43:07.385Z,100.00
2022-12-31T02:45:43.314Z,100.00
2022-12-31T02:48:29.047Z,100.00
2022-12-31T02:51:18.141Z,100.00
2022-12-31T02:54:10.176Z,100.00
2022-12-31T02:56:51.421Z,100.00
2022-12-31T02:59:45.161Z,100.00
2022-12-31T03:02:20.658Z,100.00
2022-12-31T03:04:54.720Z,100.00
2022-12-31T03:07:27.361Z,100.00
2022-12-31T03:09:57.674Z,100.00
2022-12-31T03:12:47.825Z,100.00
2022-12-31T03:15:24.178Z,100.00
2022-12-31T03:18:00.502Z,100.00
2022-12-31T03:20:52.009Z,100.00
2022-12-31T03:23:25.782Z,100.00
2022-12-31T03:25:55.336Z,100.00
2022-12-31T03:28:27.338Z,100.00
2022-12-31T03:31:00.158Z,100.00
2022-12-31T03:33:34.227Z,100.00
2022-12-31T03:36:08.730Z,100.00
2022-12-31T03:38:38.898Z,100.00
2022-12-31T03:41:11.157Z,100.00
2022-12-31T03:43:41.082Z,100.00
2022-12-31T03:46:10.965Z,100.00
2022-12-31T03:51:48.945Z,100.00
2022-12-31T03:54:18.718Z,100.00
2022-12-31T03:56:49.675Z,100.00
2022-12-31T03:59:19.530Z,100.00
2022-12-31T04:01:49.710Z,100.00
2022-12-31T04:04:19.538Z,100.00
2022-12-31T04:06:51.545Z,100.00
2022-12-31T04:09:21.295Z,100.00
2022-12-31T04:11:51.398Z,100.00
2022-12-31T04:14:21.584Z,100.00
2022-12-31T04:16:51.439Z,100.00
2022-12-31T04:19:21.507Z,100.00
2022-12-31T04:21:53.021Z,100.00
2022-12-31T04:24:22.795Z,100.00
2022-12-31T04:26:52.852Z,100.00
2022-12-31T04:29:22.935Z,100.00
2022-12-31T04:31:52.850Z,100.00
2022-12-31T04:34:23.516Z,100.00
2022-12-31T04:36:55.008Z,100.00
2022-12-31T04:39:25.076Z,100.00
2022-12-31T04:41:55.922Z,100.00
2022-12-31T04:44:25.979Z,100.00
2022-12-31T04:46:55.856Z,100.00
2022-12-31T04:49:25.746Z,100.00
2022-12-31T04:51:57.119Z,100.00
2022-12-31T04:54:27.122Z,100.00
2022-12-31T04:56:57.057Z,100.00
2022-12-31T04:59:27.286Z,100.00
2022-12-31T05:01:57.171Z,100.00
2022-12-31T05:04:27.450Z,100.00
2022-12-31T05:06:58.718Z,100.00
2022-12-31T05:09:30.187Z,100.00
2022-12-31T05:11:59.983Z,100.00
2022-12-31T05:14:29.942Z,100.00
2022-12-31T05:17:01.431Z,100.00
2022-12-31T05:19:31.421Z,100.00
2022-12-31T05:22:20.580Z,100.00
2022-12-31T05:24:52.395Z,100.00
2022-12-31T05:27:22.179Z,100.00
2022-12-31T05:29:52.078Z,100.00
2022-12-31T05:32:21.756Z,100.00
2022-12-31T05:34:51.807Z,100.00
2022-12-31T05:37:23.156Z,100.00
2022-12-31T05:39:52.959Z,100.00
2022-12-31T05:42:22.817Z,100.00
2022-12-31T05:44:52.883Z,100.00
2022-12-31T05:47:22.983Z,100.00
2022-12-31T05:49:52.811Z,100.00
2022-12-31T05:52:24.670Z,100.00
2022-12-31T05:54:54.606Z,100.00
2022-12-31T05:57:24.553Z,100.00
2022-12-31T05:59:54.679Z,100.00
2022-12-31T06:02:25.339Z,100.00
2022-12-31T06:04:55.468Z,100.00
2022-12-31T06:07:26.923Z,100.00
2022-12-31T06:09:56.944Z,100.00
2022-12-31T06:12:26.782Z,100.00
2022-12-31T06:14:56.645Z,100.00
2022-12-31T06:17:30.459Z,100.00
2022-12-31T06:20:01.427Z,100.00
2022-12-31T06:22:32.957Z,100.00
2022-12-31T06:25:02.813Z,100.00
2022-12-31T06:27:33.110Z,100.00
2022-12-31T06:30:02.955Z,100.00
2022-12-31T06:32:32.953Z,100.00
2022-12-31T06:35:02.840Z,100.00
2022-12-31T06:37:34.155Z,100.00
2022-12-31T06:40:04.142Z,100.00
2022-12-31T06:42:34.569Z,100.00
2022-12-31T06:45:04.432Z,100.00
2022-12-31T06:47:34.379Z,100.00
2022-12-31T06:51:49.063Z,100.00
2022-12-31T06:54:18.923Z,100.00
2022-12-31T06:56:49.702Z,100.00
2022-12-31T06:59:29.563Z,100.00
2022-12-31T07:02:19.747Z,100.00
2022-12-31T07:05:33.141Z,100.00
2022-12-31T07:08:19.098Z,100.00
2022-12-31T07:10:57.676Z,100.00
2022-12-31T07:14:11.723Z,100.00
2022-12-31T07:16:58.204Z,100.00
2022-12-31T07:19:45.807Z,100.00
2022-12-31T07:22:18.624Z,100.00
2022-12-31T07:24:50.247Z,100.00
2022-12-31T07:27:44.100Z,100.00
2022-12-31T07:30:16.957Z,100.00
2022-12-31T07:33:07.735Z,100.00
2022-12-31T07:35:53.006Z,100.00
2022-12-31T07:38:34.261Z,100.00
2022-12-31T07:41:14.444Z,100.00
2022-12-31T07:44:00.767Z,100.00
2022-12-31T07:46:41.096Z,100.00
2022-12-31T07:49:15.073Z,100.00
2022-12-31T07:51:45.951Z,100.00
2022-12-31T07:54:15.982Z,100.00
2022-12-31T07:56:48.279Z,100.00
2022-12-31T07:59:37.819Z,100.00
2022-12-31T08:02:18.725Z,100.00
2022-12-31T08:05:02.203Z,100.00
2022-12-31T08:07:41.887Z,100.00
2022-12-31T08:10:19.138Z,100.00
2022-12-31T08:12:52.537Z,100.00
2022-12-31T08:15:30.025Z,100.00
2022-12-31T08:18:01.303Z,100.00
2022-12-31T08:20:35.468Z,100.00
2022-12-31T08:23:21.927Z,99.87
2022-12-31T08:26:13.681Z,97.91
2022-12-31T08:29:10.443Z,96.41
2022-12-31T08:31:49.926Z,94.79
2022-12-31T08:34:28.130Z,91.88
2022-12-31T08:37:08.696Z,90.05
2022-12-31T08:39:57.999Z,88.67
2022-12-31T08:42:37.695Z,87.40
2022-12-31T08:45:19.264Z,86.43
2022-12-31T08:48:00.488Z,84.04
2022-12-31T08:50:32.036Z,84.13
2022-12-31T08:53:03.199Z,82.78
2022-12-31T08:55:34.358Z,83.48
2022-12-31T08:58:22.056Z,83.55
2022-12-31T09:01:00.131Z,84.30
2022-12-31T09:03:48.000Z,83.93
2022-12-31T09:06:28.159Z,84.61
2022-12-31T09:09:05.602Z,84.95
2022-12-31T09:11:50.156Z,85.22
2022-12-31T09:14:43.050Z,85.09
2022-12-31T09:17:42.267Z,84.92
2022-12-31T09:20:21.612Z,84.78
2022-12-31T09:22:53.133Z,84.81
2022-12-31T09:25:25.290Z,85.42
2022-12-31T09:28:12.098Z,85.35
2022-12-31T09:30:51.532Z,85.53
2022-12-31T09:33:42.363Z,85.14
2022-12-31T09:36:17.885Z,83.38
2022-12-31T09:38:57.497Z,84.12
2022-12-31T09:42:03.496Z,84.25
2022-12-31T09:45:18.340Z,84.16
2022-12-31T09:52:03.959Z,82.11
2022-12-31T09:54:49.222Z,81.99
2022-12-31T09:57:36.343Z,80.77
2022-12-31T10:00:15.170Z,80.12
2022-12-31T10:03:16.414Z,79.77
2022-12-31T10:06:07.196Z,80.96
2022-12-31T10:09:02.000Z,80.35
2022-12-31T10:11:46.378Z,80.43
2022-12-31T10:14:46.921Z,80.68
2022-12-31T10:17:32.281Z,81.01
2022-12-31T10:20:47.436Z,80.60
2022-12-31T10:23:52.630Z,79.65
2022-12-31T10:27:03.414Z,79.53
2022-12-31T10:29:47.261Z,80.17
2022-12-31T10:32:27.798Z,79.48
2022-12-31T10:35:17.700Z,78.30
2022-12-31T10:37:59.516Z,79.41
2022-12-31T10:40:59.308Z,78.57
2022-12-31T10:44:49.821Z,78.57
2022-12-31T10:48:03.541Z,78.07
2022-12-31T10:51:22.003Z,78.92
2022-12-31T10:54:40.581Z,78.12
2022-12-31T10:57:56.262Z,78.25
2022-12-31T11:00:32.942Z,78.50
2022-12-31T11:04:03.341Z,77.48
2022-12-31T11:07:29.659Z,77.19
2022-12-31T11:10:44.916Z,74.64
2022-12-31T11:14:03.610Z,74.85
2022-12-31T11:16:59.104Z,74.91
2022-12-31T11:19:43.478Z,73.64
2022-12-31T11:22:42.143Z,75.04
2022-12-31T11:25:40.677Z,75.38
2022-12-31T11:28:55.189Z,76.46
2022-12-31T11:31:52.745Z,76.57
2022-12-31T11:34:46.597Z,77.08
2022-12-31T11:37:39.365Z,77.57
2022-12-31T11:40:42.490Z,77.73
2022-12-31T11:43:28.650Z,78.15
2022-12-31T11:46:36.253Z,77.47
2022-12-31T11:49:23.096Z,78.66
2022-12-31T11:52:28.501Z,78.01
2022-12-31T11:55:30.242Z,76.74
2022-12-31T11:58:10.521Z,75.77
2022-12-31T12:00:42.211Z,76.03
2022-12-31T12:03:14.522Z,76.25
2022-12-31T12:05:44.383Z,76.58
2022-12-31T12:08:15.298Z,76.22
2022-12-31T12:10:49.399Z,74.78
2022-12-31T12:13:26.321Z,74.69
2022-12-31T12:16:02.319Z,75.87
2022-12-31T12:18:44.577Z,76.20
2022-12-31T12:21:18.497Z,75.83
2022-12-31T12:23:59.393Z,75.46
2022-12-31T12:26:36.312Z,75.79
2022-12-31T12:29:14.739Z,75.20
2022-12-31T12:31:55.608Z,76.05
2022-12-31T12:34:29.876Z,76.32
2022-12-31T12:36:59.963Z,76.27
2022-12-31T12:39:33.456Z,75.90
2022-12-31T12:42:07.367Z,76.29
2022-12-31T12:44:37.444Z,76.25
2022-12-31T12:47:10.313Z,77.04
2022-12-31T12:52:09.848Z,77.26
2022-12-31T12:55:00.404Z,78.25
2022-12-31T12:57:40.396Z,78.57
2022-12-31T13:00:21.337Z,78.73
2022-12-31T13:03:28.116Z,78.47
2022-12-31T13:06:20.750Z,78.17
2022-12-31T13:09:15.818Z,78.02
2022-12-31T13:15:17.475Z,79.19
2022-12-31T13:18:02.634Z,79.40
2022-12-31T13:20:39.964Z,78.94
2022-12-31T13:23:23.855Z,79.23
2022-12-31T13:26:09.857Z,79.54
2022-12-31T13:28:43.068Z,79.97
2022-12-31T13:31:17.388Z,80.54
2022-12-31T13:33:52.999Z,80.80
2022-12-31T13:36:25.838Z,81.06
2022-12-31T13:38:59.117Z,81.27
2022-12-31T13:41:36.585Z,81.24
2022-12-31T13:44:16.925Z,81.74
2022-12-31T13:46:50.900Z,81.93
2022-12-31T13:49:29.066Z,82.41
2022-12-31T13:52:09.088Z,82.74
2022-12-31T13:54:46.402Z,82.73
2022-12-31T13:57:39.982Z,83.25
2022-12-31T14:00:23.220Z,83.58
2022-12-31T14:03:08.259Z,83.59
2022-12-31T14:05:44.888Z,84.00
2022-12-31T14:08:14.974Z,84.48
2022-12-31T14:10:59.527Z,84.65
2022-12-31T14:13:52.339Z,84.69
2022-12-31T14:16:34.545Z,85.26
2022-12-31T14:19:15.736Z,85.37
2022-12-31T14:21:53.430Z,85.88
2022-12-31T14:24:39.099Z,86.06
2022-12-31T14:27:16.727Z,86.42
2022-12-31T14:29:52.259Z,86.78
2022-12-31T14:33:16.716Z,87.08
2022-12-31T14:36:12.288Z,87.27
2022-12-31T14:38:58.644Z,87.73
2022-12-31T14:41:48.636Z,88.29
2022-12-31T14:44:42.684Z,89.00
2022-12-31T14:47:33.935Z,89.29
2022-12-31T14:50:12.977Z,89.89
2022-12-31T14:52:54.369Z,90.49
2022-12-31T14:55:31.216Z,90.42
2022-12-31T14:58:27.573Z,90.51
2022-12-31T15:00:58.582Z,90.61
2022-12-31T15:03:45.087Z,91.09
2022-12-31T15:06:44.423Z,91.59
2022-12-31T15:09:44.355Z,91.40
2022-12-31T15:12:41.402Z,91.48
2022-12-31T15:15:33.628Z,92.46
2022-12-31T15:18:29.415Z,91.72
2022-12-31T15:21:45.400Z,91.45
2022-12-31T15:24:24.574Z,91.71
2022-12-31T15:26:57.263Z,92.49
2022-12-31T15:29:32.256Z,92.21
2022-12-31T15:32:06.017Z,92.34
2022-12-31T15:34:39.447Z,92.01
2022-12-31T15:37:32.003Z,92.68
2022-12-31T15:40:20.761Z,93.15
2022-12-31T15:42:56.802Z,93.28
2022-12-31T15:45:34.218Z,93.47
2022-12-31T15:48:10.147Z,93.11
2022-12-31T15:51:53.768Z,93.39
2022-12-31T15:54:37.624Z,93.12
2022-12-31T15:57:13.409Z,93.50
2022-12-31T15:59:43.843Z,93.86
2022-12-31T16:02:23.696Z,93.96
2022-12-31T16:04:55.066Z,94.58
2022-12-31T16:07:28.082Z,93.98
2022-12-31T16:10:00.925Z,93.96
2022-12-31T16:12:38.241Z,94.43
2022-12-31T16:15:26.283Z,95.25
2022-12-31T16:18:10.627Z,95.16
2022-12-31T16:20:48.785Z,95.53
2022-12-31T16:23:25.280Z,94.82
2022-12-31T16:25:59.937Z,94.43
2022-12-31T16:28:33.867Z,94.82
2022-12-31T16:31:06.971Z,95.45
2022-12-31T16:33:37.103Z,95.71
2022-12-31T16:36:07.948Z,95.63
2022-12-31T16:38:40.957Z,95.63
2022-12-31T16:41:20.245Z,95.52
2022-12-31T16:43:51.244Z,96.22
2022-12-31T16:46:27.237Z,96.55
2022-12-31T16:49:01.705Z,96.09
2022-12-31T16:51:35.853Z,96.18
2022-12-31T16:54:07.615Z,96.75
2022-12-31T16:56:41.242Z,96.27
2022-12-31T16:59:24.124Z,95.97
2022-12-31T17:01:56.265Z,95.82
2022-12-31T17:04:27.305Z,96.13
2022-12-31T17:06:57.423Z,96.26
2022-12-31T17:09:36.885Z,96.32
2022-12-31T17:12:17.997Z,96.52
2022-12-31T17:14:52.578Z,97.03
2022-12-31T17:17:26.816Z,96.79
2022-12-31T17:20:01.225Z,97.10
2022-12-31T17:22:37.196Z,96.91
2022-12-31T17:25:25.364Z,96.99
2022-12-31T17:27:59.307Z,97.82
2022-12-31T17:30:41.881Z,98.16
2022-12-31T17:33:32.023Z,97.88
2022-12-31T17:36:23.929Z,97.45
2022-12-31T17:38:53.816Z,97.22
2022-12-31T17:41:29.884Z,97.82
2022-12-31T17:44:00.448Z,97.57
2022-12-31T17:46:41.618Z,97.27
2022-12-31T17:49:15.561Z,97.82
2022-12-31T17:51:47.743Z,98.37
2022-12-31T17:54:18.763Z,98.70
2022-12-31T17:56:50.690Z,98.76
2022-12-31T17:59:24.140Z,98.79
2022-12-31T18:01:54.303Z,98.46
2022-12-31T18:04:24.237Z,98.65
2022-12-31T18:06:54.082Z,98.43
2022-12-31T18:09:23.929Z,98.12
2022-12-31T18:11:59.730Z,98.08
2022-12-31T18:14:31.391Z,98.33
2022-12-31T18:17:01.218Z,98.59
2022-12-31T18:20:03.088Z,98.25
2022-12-31T18:22:21.324Z,98.69
2022-12-31T18:24:55.660Z,99.08
2022-12-31T18:27:27.126Z,98.23
2022-12-31T18:30:04.130Z,98.96
2022-12-31T18:32:36.185Z,99.39
2022-12-31T18:35:07.553Z,99.66
2022-12-31T18:37:38.107Z,99.81
2022-12-31T18:40:09.626Z,99.11
2022-12-31T18:42:42.202Z,98.99
2022-12-31T18:45:19.240Z,98.97
2022-12-31T18:47:49.524Z,99.48
2022-12-31T18:51:52.598Z,99.95
2022-12-31T18:54:23.063Z,100.00
2022-12-31T18:56:57.067Z,99.88
2022-12-31T18:59:27.345Z,99.95
2022-12-31T19:01:57.266Z,100.00
2022-12-31T19:04:28.439Z,100.00
2022-12-31T19:07:00.177Z,99.80
2022-12-31T19:09:45.175Z,99.59
2022-12-31T19:12:18.121Z,99.72
2022-12-31T19:14:48.054Z,99.81
2022-12-31T19:17:17.945Z,100.00
2022-12-31T19:19:47.963Z,100.00
2022-12-31T19:22:19.613Z,100.00
2022-12-31T19:24:49.548Z,100.00
2022-12-31T19:27:19.530Z,100.00
2022-12-31T19:29:49.456Z,99.66
2022-12-31T19:32:19.335Z,99.80
2022-12-31T19:34:49.279Z,99.92
2022-12-31T19:37:20.802Z,100.00
2022-12-31T19:39:50.805Z,100.00
2022-12-31T19:42:20.861Z,100.00
2022-12-31T19:44:50.866Z,100.00
2022-12-31T19:47:20.748Z,100.00
2022-12-31T19:49:50.936Z,100.00
2022-12-31T19:52:22.395Z,100.00
2022-12-31T19:54:52.351Z,100.00
2022-12-31T19:57:22.167Z,99.88
2022-12-31T19:59:51.944Z,100.00
2022-12-31T20:02:22.096Z,100.00
2022-12-31T20:04:51.968Z,100.00
2022-12-31T20:07:27.093Z,100.00
2022-12-31T20:09:57.319Z,100.00
2022-12-31T20:12:27.452Z,100.00
2022-12-31T20:14:57.422Z,100.00
2022-12-31T20:17:28.224Z,100.00
2022-12-31T20:19:58.212Z,100.00
2022-12-31T20:22:29.742Z,100.00
2022-12-31T20:24:59.702Z,100.00
2022-12-31T20:27:29.585Z,100.00
2022-12-31T20:29:59.499Z,100.00
2022-12-31T20:32:29.460Z,100.00
2022-12-31T20:34:59.474Z,100.00
2022-12-31T20:37:30.867Z,100.00
2022-12-31T20:40:00.820Z,100.00
2022-12-31T20:42:30.554Z,100.00
2022-12-31T20:45:00.508Z,100.00
2022-12-31T20:47:30.303Z,100.00
2022-12-31T20:50:15.485Z,100.00
2022-12-31T20:52:47.602Z,100.00
2022-12-31T20:55:18.458Z,100.00
2022-12-31T20:57:48.422Z,100.00
2022-12-31T21:00:19.778Z,100.00
2022-12-31T21:02:57.899Z,100.00
2022-12-31T21:05:34.523Z,100.00
2022-12-31T21:08:11.003Z,100.00
2022-12-31T21:10:41.339Z,100.00
2022-12-31T21:13:10.199Z,100.00
2022-12-31T21:15:40.115Z,100.00
2022-12-31T21:18:10.785Z,100.00
2022-12-31T21:20:40.562Z,100.00
2022-12-31T21:23:12.027Z,100.00
2022-12-31T21:25:42.262Z,100.00
2022-12-31T21:28:12.641Z,100.00
2022-12-31T21:30:43.340Z,100.00
2022-12-31T21:33:13.477Z,100.00
2022-12-31T21:35:51.668Z,100.00
2022-12-31T21:38:25.402Z,100.00
2022-12-31T21:40:55.875Z,100.00
2022-12-31T21:43:25.880Z,100.00
2022-12-31T21:46:03.857Z,100.00
2022-12-31T21:52:08.029Z,100.00
2022-12-31T21:54:55.166Z,100.00
2022-12-31T21:57:25.182Z,100.00
2022-12-31T22:00:40.274Z,100.00
2022-12-31T22:03:19.904Z,100.00
2022-12-31T22:05:53.596Z,100.00
2022-12-31T22:08:26.055Z,100.00
2022-12-31T22:10:55.852Z,100.00
2022-12-31T22:13:26.066Z,100.00
2022-12-31T22:16:04.398Z,100.00
2022-12-31T22:18:39.005Z,100.00
2022-12-31T22:21:18.286Z,100.00
2022-12-31T22:23:52.360Z,100.00
2022-12-31T22:26:27.884Z,100.00
2022-12-31T22:29:00.210Z,100.00
2022-12-31T22:31:32.261Z,100.00
2022-12-31T22:34:02.305Z,100.00
2022-12-31T22:36:32.135Z,100.00
2022-12-31T22:39:03.527Z,100.00
2022-12-31T22:41:33.384Z,100.00
2022-12-31T22:44:05.166Z,100.00
2022-12-31T22:46:36.118Z,100.00
2022-12-31T22:49:07.455Z,100.00
2022-12-31T22:51:57.254Z,100.00
2022-12-31T22:54:28.789Z,100.00
2022-12-31T22:56:58.636Z,100.00
2022-12-31T22:59:28.602Z,100.00
2022-12-31T23:01:58.440Z,100.00
2022-12-31T23:04:28.610Z,100.00
2022-12-31T23:06:58.643Z,100.00
2022-12-31T23:09:47.463Z,100.00
2022-12-31T23:12:17.423Z,100.00
2022-12-31T23:15:04.342Z,100.00
2022-12-31T23:17:51.525Z,100.00
2022-12-31T23:20:41.786Z,100.00
2022-12-31T23:23:17.466Z,100.00
2022-12-31T23:25:51.242Z,100.00
2022-12-31T23:28:24.198Z,100.00
2022-12-31T23:30:54.783Z,100.00
2022-12-31T23:33:27.157Z,100.00
2022-12-31T23:36:05.889Z,100.00
2022-12-31T23:38:35.755Z,100.00
2022-12-31T23:41:16.235Z,100.00
2022-12-31T23:43:46.841Z,100.00
2022-12-31T23:46:18.130Z,100.00
2022-12-31T23:48:48.151Z,100.00
2022-12-31T23:51:17.936Z,100.00
2022-12-31T23:53:47.788Z,100.00
2022-12-31T23:56:23.924Z,100.00
2022-12-31T23:58:56.883Z,100.00
